Time;durP1;ratioP1;P1;durP2;ratioP2;P2;SDS_P1;SDS_P2;PMS_P1;PMS_P2;Temp;Humidity;BMP_temperature;BMP_pressure;BME280_temperature;BME280_humidity;BME280_pressure;Samples;Min_cycle;Max_cycle;Signal;HPM_P1;HPM_P2
2022/05/07 00:00:25;;;;;;;56.92;36.67;;;12.60;99.90;;;;;;5042097;28;20041;-80
2022/05/07 00:02:50;;;;;;;62.22;38.33;;;12.70;99.90;;;;;;5044439;28;20403;-80
2022/05/07 00:05:18;;;;;;;56.92;36.92;;;12.70;99.90;;;;;;5035829;28;20057;-80
2022/05/07 00:07:44;;;;;;;58.13;37.28;;;12.70;99.90;;;;;;5062182;28;20041;-80
2022/05/07 00:10:10;;;;;;;55.50;35.78;;;12.80;99.90;;;;;;5040976;28;20136;-80
2022/05/07 00:12:35;;;;;;;67.97;40.30;;;12.80;99.90;;;;;;5056797;28;20127;-80
2022/05/07 00:15:01;;;;;;;61.17;38.30;;;12.80;99.90;;;;;;5033668;28;20036;-80
2022/05/07 00:20:11;;;;;;;61.33;38.40;;;12.80;99.90;;;;;;5052438;28;20072;-80
2022/05/07 00:22:36;;;;;;;51.83;35.67;;;12.90;99.90;;;;;;5015928;28;20049;-83
2022/05/07 00:25:03;;;;;;;60.97;37.88;;;12.90;99.90;;;;;;5046374;28;20068;-84
2022/05/07 00:27:29;;;;;;;60.97;36.80;;;12.90;99.90;;;;;;5041503;28;20041;-84
2022/05/07 00:29:54;;;;;;;59.63;37.72;;;12.90;99.90;;;;;;5060499;28;20099;-84
2022/05/07 00:32:20;;;;;;;55.90;35.90;;;12.80;99.90;;;;;;5053113;28;20536;-83
2022/05/07 00:34:46;;;;;;;53.65;36.50;;;13.00;99.90;;;;;;5062586;28;20442;-84
2022/05/07 00:37:11;;;;;;;57.15;35.63;;;12.80;99.90;;;;;;5054187;28;20083;-84
2022/05/07 00:39:37;;;;;;;57.72;36.55;;;13.10;99.90;;;;;;5059725;28;20123;-83
2022/05/07 00:42:04;;;;;;;53.83;34.83;;;12.80;99.90;;;;;;5041728;28;20048;-82
2022/05/07 00:44:30;;;;;;;53.88;34.40;;;12.80;99.90;;;;;;5035705;28;20049;-82
2022/05/07 00:47:12;;;;;;;54.53;35.78;;;12.80;99.90;;;;;;5035358;28;20461;-82
2022/05/07 00:49:38;;;;;;;51.20;33.90;;;12.80;99.90;;;;;;5041455;28;20097;-82
2022/05/07 00:52:05;;;;;;;52.20;33.50;;;12.80;99.90;;;;;;5059882;28;20053;-82
2022/05/07 00:54:31;;;;;;;50.47;32.58;;;12.80;99.90;;;;;;5066109;28;20047;-83
2022/05/07 00:56:57;;;;;;;50.53;33.55;;;12.90;99.90;;;;;;5035128;28;20045;-84
2022/05/07 00:59:23;;;;;;;48.75;33.17;;;12.90;99.90;;;;;;5049161;28;20410;-84
2022/05/07 01:01:49;;;;;;;52.45;34.75;;;12.90;99.90;;;;;;5059951;28;20044;-84
2022/05/07 01:04:15;;;;;;;49.88;33.63;;;13.00;99.90;;;;;;5056967;28;20068;-83
2022/05/07 01:06:42;;;;;;;49.75;33.67;;;13.00;99.90;;;;;;5041852;28;20047;-84
2022/05/07 01:09:07;;;;;;;47.78;32.13;;;13.00;99.90;;;;;;5059544;28;20132;-84
2022/05/07 01:11:34;;;;;;;48.45;32.20;;;13.20;99.90;;;;;;5069665;28;20131;-84
2022/05/07 01:14:01;;;;;;;48.00;31.42;;;13.00;99.90;;;;;;5027819;28;20406;-79
2022/05/07 01:16:27;;;;;;;43.08;30.75;;;13.00;99.90;;;;;;5050104;28;20041;-79
2022/05/07 01:18:52;;;;;;;42.33;29.90;;;13.00;99.90;;;;;;5065034;22;20056;-83
2022/05/07 01:21:18;;;;;;;50.55;31.52;;;13.10;99.90;;;;;;5054838;28;20497;-84
2022/05/07 01:23:47;;;;;;;43.35;30.80;;;13.10;99.90;;;;;;5071606;28;20063;-84
2022/05/07 01:26:14;;;;;;;46.28;31.67;;;13.10;99.90;;;;;;5072836;28;20048;-84
2022/05/07 01:28:40;;;;;;;48.80;32.25;;;13.10;99.90;;;;;;5054913;28;20041;-83
2022/05/07 01:31:06;;;;;;;40.88;30.88;;;13.10;99.90;;;;;;5071944;28;20072;-84
2022/05/07 01:33:33;;;;;;;42.70;30.92;;;13.10;99.90;;;;;;5055013;28;20094;-84
2022/05/07 01:36:03;;;;;;;43.33;30.10;;;13.10;99.90;;;;;;5071455;28;20040;-84
2022/05/07 01:38:30;;;;;;;44.03;31.15;;;13.10;99.90;;;;;;5071344;28;20390;-84
2022/05/07 01:40:56;;;;;;;45.15;30.55;;;13.00;99.90;;;;;;5054677;28;20075;-84
2022/05/07 01:43:22;;;;;;;40.47;31.10;;;13.00;99.90;;;;;;5071646;28;20372;-84
2022/05/07 01:45:48;;;;;;;38.33;28.75;;;13.00;99.90;;;;;;5071422;28;20448;-83
2022/05/07 01:48:14;;;;;;;39.80;28.98;;;12.90;99.90;;;;;;5071544;28;20070;-83
2022/05/07 01:50:42;;;;;;;39.72;28.92;;;12.80;99.90;;;;;;5071586;28;20500;-83
2022/05/07 01:53:11;;;;;;;40.25;29.20;;;12.70;99.90;;;;;;5041319;28;20068;-82
2022/05/07 01:55:38;;;;;;;39.45;29.02;;;12.70;99.90;;;;;;5071546;28;20482;-82
2022/05/07 01:58:04;;;;;;;37.60;28.45;;;12.70;99.90;;;;;;5071456;28;20029;-82
2022/05/07 02:00:31;;;;;;;41.72;29.80;;;12.70;99.90;;;;;;5071283;28;20049;-83
2022/05/07 02:02:58;;;;;;;39.50;29.27;;;12.60;99.90;;;;;;5071481;28;20040;-83
2022/05/07 02:05:25;;;;;;;38.60;28.70;;;12.60;99.90;;;;;;5071332;28;20564;-83
2022/05/07 02:07:51;;;;;;;42.05;29.05;;;12.50;99.90;;;;;;5054329;28;20047;-82
2022/05/07 02:10:17;;;;;;;38.08;28.58;;;12.50;99.90;;;;;;5058233;28;20033;-82
2022/05/07 02:12:43;;;;;;;37.75;28.63;;;12.50;99.90;;;;;;5074667;28;20079;-82
2022/05/07 02:15:09;;;;;;;38.20;29.27;;;12.40;99.90;;;;;;5074672;28;20059;-83
2022/05/07 02:17:35;;;;;;;41.20;29.52;;;12.40;99.90;;;;;;5058059;28;20070;-82
2022/05/07 02:20:02;;;;;;;38.65;29.23;;;12.30;99.90;;;;;;5074249;28;20052;-83
2022/05/07 02:22:28;;;;;;;39.20;29.17;;;12.30;99.90;;;;;;5041422;28;20498;-83
2022/05/07 02:24:53;;;;;;;38.00;29.35;;;12.30;99.90;;;;;;5057834;28;20070;-83
2022/05/07 02:27:19;;;;;;;38.58;27.98;;;12.30;99.90;;;;;;5057845;28;20036;-83
2022/05/07 02:29:44;;;;;;;36.15;27.05;;;12.20;99.90;;;;;;5058314;28;20094;-83
2022/05/07 02:32:13;;;;;;;37.50;27.25;;;12.20;99.90;;;;;;5057719;28;20425;-83
2022/05/07 02:34:39;;;;;;;36.08;27.85;;;12.10;99.90;;;;;;5057951;28;20052;-83
2022/05/07 02:37:05;;;;;;;40.25;29.92;;;12.10;99.90;;;;;;5057560;28;20078;-82
2022/05/07 02:39:32;;;;;;;38.92;28.40;;;12.00;99.90;;;;;;5047273;28;20044;-82
2022/05/07 02:44:44;;;;;;;36.75;28.85;;;12.00;99.90;;;;;;5074290;28;20040;-83
2022/05/07 02:47:09;;;;;;;37.15;28.67;;;11.90;99.90;;;;;;5040953;28;20036;-83
2022/05/07 02:49:35;;;;;;;37.85;29.08;;;11.90;99.90;;;;;;5074044;28;20513;-83
2022/05/07 02:52:01;;;;;;;36.40;28.10;;;11.90;99.90;;;;;;5040738;28;20123;-80
2022/05/07 02:54:27;;;;;;;38.03;28.80;;;11.90;99.90;;;;;;5057777;28;20382;-80
2022/05/07 02:56:55;;;;;;;36.30;28.52;;;11.90;99.90;;;;;;5074173;28;20130;-80
2022/05/07 02:59:20;;;;;;;37.63;28.25;;;11.80;99.90;;;;;;5073823;28;20127;-80
2022/05/07 03:01:46;;;;;;;42.78;27.90;;;11.80;99.90;;;;;;5073578;28;20179;-80
2022/05/07 03:04:12;;;;;;;35.33;27.42;;;11.80;99.90;;;;;;5040596;28;20048;-80
2022/05/07 03:06:37;;;;;;;36.67;27.50;;;11.80;99.90;;;;;;5073885;28;20076;-80
2022/05/07 03:09:04;;;;;;;35.85;28.33;;;11.80;99.90;;;;;;5040362;28;20097;-80
2022/05/07 03:11:33;;;;;;;37.03;28.52;;;11.80;99.90;;;;;;5057130;28;20047;-80
2022/05/07 03:13:59;;;;;;;39.05;27.45;;;11.80;99.90;;;;;;5056802;28;20522;-79
2022/05/07 03:16:25;;;;;;;34.83;27.77;;;11.90;99.90;;;;;;5073850;28;20040;-79
2022/05/07 03:18:51;;;;;;;36.88;27.35;;;11.90;99.90;;;;;;5040207;28;20418;-79
2022/05/07 03:21:16;;;;;;;34.13;27.90;;;11.90;99.90;;;;;;5073330;28;20490;-79
2022/05/07 03:23:44;;;;;;;36.80;28.73;;;11.90;99.90;;;;;;5073366;28;20040;-80
2022/05/07 03:26:11;;;;;;;37.45;28.35;;;11.90;99.90;;;;;;5057004;28;20044;-79
2022/05/07 03:28:38;;;;;;;35.35;28.02;;;11.90;99.90;;;;;;5056516;28;20032;-79
2022/05/07 03:31:04;;;;;;;34.80;27.45;;;11.90;99.90;;;;;;5056640;28;20044;-80
2022/05/07 03:33:29;;;;;;;35.40;27.98;;;11.90;99.90;;;;;;5056676;28;20368;-80
2022/05/07 03:35:55;;;;;;;34.20;27.63;;;11.90;99.90;;;;;;5039351;28;20040;-79
2022/05/07 03:38:22;;;;;;;33.22;26.65;;;11.90;99.90;;;;;;5039616;28;20048;-79
2022/05/07 03:40:48;;;;;;;35.42;27.88;;;11.90;99.90;;;;;;5073027;28;20498;-80
2022/05/07 03:43:14;;;;;;;37.90;28.45;;;11.90;99.90;;;;;;5056716;28;20033;-80
2022/05/07 03:45:40;;;;;;;39.80;28.60;;;11.90;99.90;;;;;;5073266;28;20045;-81
2022/05/07 03:48:06;;;;;;;32.10;26.15;;;11.90;99.90;;;;;;5056200;28;20494;-80
2022/05/07 03:50:32;;;;;;;33.47;27.80;;;11.90;99.90;;;;;;5056163;28;20482;-80
2022/05/07 03:55:42;;;;;;;34.60;27.25;;;11.80;99.90;;;;;;5072688;28;20045;-80
2022/05/07 03:58:15;;;;;;;34.35;26.90;;;11.70;99.90;;;;;;5056004;28;20036;-80
2022/05/07 04:00:44;;;;;;;31.48;26.67;;;11.70;99.90;;;;;;5072924;28;20473;-84
2022/05/07 04:03:11;;;;;;;35.70;27.85;;;11.70;99.90;;;;;;5039250;28;20024;-84
2022/05/07 04:05:38;;;;;;;39.08;28.67;;;11.70;99.90;;;;;;5039619;28;20554;-84
2022/05/07 04:08:04;;;;;;;35.58;28.98;;;11.70;99.90;;;;;;5055892;28;20037;-84
2022/05/07 04:10:29;;;;;;;36.80;28.25;;;11.60;99.90;;;;;;5056208;28;20119;-84
2022/05/07 04:12:55;;;;;;;37.00;28.95;;;11.60;99.90;;;;;;5072280;28;20459;-84
2022/05/07 04:15:21;;;;;;;37.30;29.23;;;11.60;99.90;;;;;;5072739;28;20414;-84
2022/05/07 04:17:48;;;;;;;34.97;28.45;;;11.60;99.90;;;;;;5072233;28;20041;-83
2022/05/07 04:20:14;;;;;;;37.25;29.20;;;11.60;99.90;;;;;;5072073;28;20599;-83
2022/05/07 04:22:40;;;;;;;35.45;29.25;;;11.60;99.90;;;;;;5055440;28;20064;-83
2022/05/07 04:25:07;;;;;;;36.00;28.67;;;11.60;99.90;;;;;;5039312;28;20036;-83
2022/05/07 04:27:34;;;;;;;38.67;28.95;;;11.70;99.90;;;;;;5072191;28;20399;-83
2022/05/07 04:30:00;;;;;;;38.25;29.55;;;11.70;99.90;;;;;;5072097;28;20040;-83
2022/05/07 04:32:28;;;;;;;32.47;27.15;;;11.70;99.90;;;;;;5071809;28;20120;-84
2022/05/07 04:34:55;;;;;;;37.53;29.38;;;11.80;99.90;;;;;;5055704;28;20097;-84
2022/05/07 04:37:25;;;;;;;37.50;27.35;;;11.80;99.90;;;;;;5073146;28;20486;-84
2022/05/07 04:39:51;;;;;;;37.08;29.27;;;11.80;99.90;;;;;;5055850;28;20144;-84
2022/05/07 04:42:17;;;;;;;33.50;27.65;;;11.90;99.90;;;;;;5071807;28;20041;-84
2022/05/07 04:44:43;;;;;;;36.50;29.35;;;12.50;99.90;;;;;;5073314;28;20495;-85
2022/05/07 04:47:09;;;;;;;37.25;29.15;;;12.00;99.90;;;;;;5072021;28;20036;-84
2022/05/07 04:49:36;;;;;;;35.45;29.17;;;12.00;99.90;;;;;;5055392;28;20448;-85
2022/05/07 04:52:05;;;;;;;36.53;27.92;;;12.10;99.90;;;;;;5055406;28;20048;-85
2022/05/07 04:54:31;;;;;;;36.85;28.77;;;12.20;99.90;;;;;;5073511;28;20048;-85
2022/05/07 04:56:57;;;;;;;34.15;28.30;;;12.20;99.90;;;;;;5072155;28;20041;-85
2022/05/07 04:59:23;;;;;;;42.08;30.88;;;12.40;99.90;;;;;;5072096;28;20540;-85
2022/05/07 05:01:48;;;;;;;39.50;31.42;;;12.20;99.90;;;;;;5055044;28;20521;-86
2022/05/07 05:04:15;;;;;;;40.80;30.73;;;12.20;99.90;;;;;;5071968;28;20033;-85
2022/05/07 05:06:41;;;;;;;40.38;32.08;;;12.30;99.90;;;;;;5071876;28;20036;-84
2022/05/07 05:09:07;;;;;;;38.03;29.65;;;12.30;99.90;;;;;;5071728;28;20535;-84
2022/05/07 05:11:34;;;;;;;37.08;31.55;;;12.30;99.90;;;;;;5071698;28;20036;-84
2022/05/07 05:14:00;;;;;;;43.15;33.17;;;12.30;99.90;;;;;;5054800;28;20044;-84
2022/05/07 05:16:26;;;;;;;40.80;31.90;;;12.30;99.90;;;;;;5054883;28;20127;-84
2022/05/07 05:18:52;;;;;;;36.38;31.08;;;12.30;99.90;;;;;;5071733;28;20063;-84
2022/05/07 05:21:18;;;;;;;40.88;32.17;;;12.30;99.90;;;;;;5071561;28;20414;-84
2022/05/07 05:23:46;;;;;;;36.22;29.65;;;12.40;99.90;;;;;;5071472;28;20033;-85
2022/05/07 05:26:15;;;;;;;40.22;32.08;;;12.40;99.90;;;;;;5055088;28;20040;-85
2022/05/07 05:28:42;;;;;;;38.00;31.50;;;12.50;99.90;;;;;;5073044;28;20044;-85
2022/05/07 05:31:09;;;;;;;40.65;31.73;;;12.60;99.90;;;;;;5039001;28;20032;-85
2022/05/07 05:33:35;;;;;;;41.35;32.08;;;12.60;99.90;;;;;;5054812;28;20441;-85
2022/05/07 05:36:01;;;;;;;39.53;30.83;;;12.70;99.90;;;;;;5071481;28;20045;-85
2022/05/07 05:38:26;;;;;;;35.83;29.25;;;12.80;99.90;;;;;;5054960;28;20090;-85
2022/05/07 05:40:52;;;;;;;36.80;30.50;;;12.80;99.90;;;;;;5052992;28;20046;-84
2022/05/07 05:43:18;;;;;;;40.63;30.42;;;12.90;99.90;;;;;;5059983;28;20041;-84
2022/05/07 05:45:44;;;;;;;39.30;31.38;;;13.30;99.90;;;;;;5074561;28;20040;-84
2022/05/07 05:48:10;;;;;;;39.35;30.42;;;12.90;99.90;;;;;;5075285;28;20560;-84
2022/05/07 05:50:35;;;;;;;36.25;30.15;;;13.00;99.90;;;;;;5075310;28;20158;-85
2022/05/07 05:53:01;;;;;;;41.45;31.75;;;13.00;99.90;;;;;;5075041;28;20387;-84
2022/05/07 05:55:27;;;;;;;37.55;29.80;;;13.10;99.90;;;;;;5075062;28;20067;-84
2022/05/07 05:57:53;;;;;;;36.05;29.88;;;13.20;99.90;;;;;;5058371;28;20029;-84
2022/05/07 06:00:19;;;;;;;35.38;29.08;;;13.40;99.90;;;;;;5074963;28;20098;-84
2022/05/07 06:02:45;;;;;;;29.80;26.52;;;13.60;99.90;;;;;;5058171;28;20036;-84
2022/05/07 06:05:11;;;;;;;33.25;27.77;;;13.90;99.90;;;;;;5041743;28;20041;-84
2022/05/07 06:07:37;;;;;;;33.42;27.80;;;14.20;99.90;;;;;;5058069;28;20490;-84
2022/05/07 06:10:04;;;;;;;33.15;27.27;;;14.30;99.90;;;;;;5058101;28;20067;-84
2022/05/07 06:12:30;;;;;;;31.85;26.38;;;14.40;99.90;;;;;;5074954;28;20078;-85
2022/05/07 06:14:56;;;;;;;31.33;26.88;;;14.50;99.90;;;;;;5074848;28;20068;-85
2022/05/07 06:17:22;;;;;;;30.85;25.98;;;14.60;99.90;;;;;;5058511;28;20040;-85
2022/05/07 06:19:49;;;;;;;29.65;26.15;;;14.80;99.90;;;;;;5057987;28;20064;-85
2022/05/07 06:22:15;;;;;;;29.08;25.75;;;14.80;99.90;;;;;;5074673;28;20056;-85
2022/05/07 06:27:33;;;;;;;31.52;26.45;;;15.20;99.90;;;;;;5062355;28;20383;-85
2022/05/07 06:30:05;;;;;;;31.50;26.40;;;15.90;99.90;;;;;;5042784;28;20040;-80
2022/05/07 06:32:35;;;;;;;30.50;24.75;;;16.60;99.90;;;;;;5057791;28;20105;-80
2022/05/07 06:35:05;;;;;;;27.35;23.38;;;17.20;99.90;;;;;;5074422;28;20498;-81
2022/05/07 06:37:35;;;;;;;33.42;24.30;;;17.90;99.90;;;;;;5074587;28;20467;-80
2022/05/07 06:40:04;;;;;;;25.02;22.33;;;18.00;99.90;;;;;;5074402;28;20036;-80
2022/05/07 06:42:29;;;;;;;25.00;22.30;;;18.50;99.90;;;;;;5043551;28;20070;-81
2022/05/07 06:44:55;;;;;;;25.25;22.50;;;19.00;99.90;;;;;;5074368;28;20040;-80
2022/05/07 06:47:21;;;;;;;24.95;22.25;;;19.30;99.90;;;;;;5074179;28;20047;-86
2022/05/07 06:49:47;;;;;;;30.63;23.17;;;19.40;99.90;;;;;;5057466;28;20429;-86
2022/05/07 06:52:13;;;;;;;27.33;23.05;;;19.60;99.90;;;;;;5041112;28;20044;-86
2022/05/07 06:54:38;;;;;;;26.25;23.58;;;19.90;99.90;;;;;;5073669;28;20113;-86
2022/05/07 06:57:04;;;;;;;26.13;22.88;;;20.20;99.90;;;;;;5073935;28;20041;-86
2022/05/07 06:59:31;;;;;;;28.05;24.38;;;19.90;99.90;;;;;;5074115;28;20052;-86
2022/05/07 07:01:57;;;;;;;26.75;23.98;;;20.00;99.90;;;;;;5057180;28;20040;-85
2022/05/07 07:04:24;;;;;;;29.75;25.15;;;19.90;99.90;;;;;;5075000;28;20033;-85
2022/05/07 07:06:50;;;;;;;29.88;26.33;;;19.70;99.90;;;;;;5063169;28;20048;-85
2022/05/07 07:09:17;;;;;;;30.05;26.17;;;19.50;99.90;;;;;;5047702;28;20029;-85
2022/05/07 07:11:43;;;;;;;35.45;28.38;;;19.40;99.90;;;;;;5073477;28;20040;-85
2022/05/07 07:14:09;;;;;;;35.75;29.17;;;19.30;99.90;;;;;;5073188;28;20040;-85
2022/05/07 07:16:36;;;;;;;32.78;29.10;;;19.30;99.90;;;;;;5057333;28;20127;-85
2022/05/07 07:19:02;;;;;;;36.13;30.52;;;19.30;99.90;;;;;;5056864;28;20502;-85
2022/05/07 07:21:28;;;;;;;41.33;33.75;;;19.50;99.90;;;;;;5073688;28;20040;-86
2022/05/07 07:23:54;;;;;;;45.83;34.15;;;19.70;99.90;;;;;;5056358;28;20470;-85
2022/05/07 07:26:20;;;;;;;42.58;35.30;;;19.90;99.90;;;;;;5074995;28;20037;-85
2022/05/07 07:28:47;;;;;;;43.22;33.65;;;20.10;99.90;;;;;;5073095;28;20044;-86
2022/05/07 07:31:13;;;;;;;42.95;33.22;;;20.20;99.90;;;;;;5073463;28;20111;-86
2022/05/07 07:33:39;;;;;;;44.83;33.22;;;20.10;99.90;;;;;;5053878;28;20090;-86
2022/05/07 07:36:07;;;;;;;42.22;32.10;;;20.00;99.90;;;;;;5056827;28;20048;-81
2022/05/07 07:38:32;;;;;;;42.33;33.25;;;19.80;99.90;;;;;;5055681;28;20051;-81
2022/05/07 07:40:58;;;;;;;44.45;33.33;;;19.60;99.90;;;;;;5039275;28;20127;-81
2022/05/07 07:43:24;;;;;;;44.05;33.63;;;19.50;99.90;;;;;;5055592;28;20036;-81
2022/05/07 07:48:34;;;;;;;43.58;32.42;;;19.20;99.90;;;;;;5072310;28;20052;-81
2022/05/07 07:51:00;;;;;;;41.42;32.50;;;19.20;99.90;;;;;;5042394;28;20036;-81
2022/05/07 07:53:26;;;;;;;38.35;30.65;;;19.20;99.90;;;;;;5072672;28;20063;-86
2022/05/07 07:55:52;;;;;;;44.15;34.00;;;19.00;99.90;;;;;;5072656;28;20478;-86
2022/05/07 07:58:18;;;;;;;42.05;33.38;;;19.00;99.90;;;;;;5056084;28;20045;-86
2022/05/07 08:00:44;;;;;;;44.63;33.33;;;19.00;99.90;;;;;;5056095;28;20041;-86
2022/05/07 08:03:12;;;;;;;41.28;31.45;;;18.90;99.90;;;;;;5072852;28;20085;-86
2022/05/07 08:05:40;;;;;;;42.90;33.10;;;18.90;99.90;;;;;;5072461;28;20120;-86
2022/05/07 08:13:38;;;;;;;44.40;31.70;;;18.80;99.90;;;;;;5062064;28;20048;-86
2022/05/07 08:16:04;;;;;;;41.58;31.05;;;18.80;99.90;;;;;;5071775;28;20040;-86
2022/05/07 08:18:30;;;;;;;43.65;32.22;;;18.80;99.90;;;;;;5055193;28;20032;-82
2022/05/07 08:20:56;;;;;;;40.65;31.80;;;18.90;99.90;;;;;;5055166;28;20124;-82
2022/05/07 08:23:22;;;;;;;41.38;30.98;;;19.00;99.90;;;;;;5039171;28;20040;-82
2022/05/07 08:25:49;;;;;;;40.70;30.95;;;19.10;99.90;;;;;;5055100;28;20494;-82
2022/05/07 08:28:18;;;;;;;44.75;32.83;;;19.20;99.90;;;;;;5054994;28;20044;-83
2022/05/07 08:30:44;;;;;;;42.15;32.17;;;19.20;99.90;;;;;;5055178;28;20032;-83
2022/05/07 08:33:10;;;;;;;41.80;31.55;;;19.20;99.90;;;;;;5055160;28;20474;-83
2022/05/07 08:35:36;;;;;;;40.38;31.30;;;19.20;99.90;;;;;;5071508;28;20505;-83
2022/05/07 08:38:02;;;;;;;40.65;31.20;;;19.20;99.90;;;;;;5055651;28;20032;-83
2022/05/07 08:40:28;;;;;;;38.05;30.70;;;19.30;99.90;;;;;;5055231;28;20498;-83
2022/05/07 08:42:55;;;;;;;44.78;31.50;;;19.30;99.90;;;;;;5038586;28;20490;-83
2022/05/07 08:45:21;;;;;;;41.45;31.92;;;19.40;99.90;;;;;;5071643;28;20048;-83
2022/05/07 08:47:51;;;;;;;42.83;30.98;;;19.40;99.90;;;;;;5071287;28;20044;-86
2022/05/07 08:50:17;;;;;;;42.10;31.77;;;19.50;99.90;;;;;;5070454;28;20391;-86
2022/05/07 08:52:44;;;;;;;45.13;32.92;;;19.60;99.90;;;;;;5070830;28;20044;-86
2022/05/07 08:55:12;;;;;;;47.60;33.05;;;19.80;99.90;;;;;;5035793;28;20037;-86
2022/05/07 08:57:39;;;;;;;42.60;32.05;;;19.90;99.90;;;;;;5054990;28;20129;-86
2022/05/07 09:00:06;;;;;;;45.97;34.85;;;20.00;99.90;;;;;;5071707;28;20040;-83
2022/05/07 09:02:48;;;;;;;45.85;34.58;;;20.10;99.90;;;;;;5055118;28;20390;-83
2022/05/07 09:05:18;;;;;;;46.53;34.47;;;20.00;99.90;;;;;;5055018;28;20628;-83
2022/05/07 09:07:58;;;;;;;44.38;33.10;;;19.80;99.90;;;;;;5055158;28;20043;-83
2022/05/07 09:10:31;;;;;;;43.35;32.20;;;19.90;99.90;;;;;;5071435;28;20058;-83
2022/05/07 09:13:15;;;;;;;46.45;30.88;;;19.90;99.90;;;;;;5034491;28;20064;-83
2022/05/07 09:15:55;;;;;;;44.40;32.72;;;19.90;99.90;;;;;;5071520;28;20041;-82
2022/05/07 09:18:23;;;;;;;42.83;32.80;;;19.80;99.90;;;;;;5057525;28;20059;-82
2022/05/07 09:21:27;;;;;;;47.15;33.60;;;19.90;99.90;;;;;;5075018;28;20135;-83
2022/05/07 09:23:56;;;;;;;43.65;34.40;;;19.90;99.90;;;;;;5075490;28;20037;-82
2022/05/07 09:26:30;;;;;;;42.97;31.58;;;19.80;99.90;;;;;;5075896;28;20048;-83
2022/05/07 09:28:57;;;;;;;42.05;31.80;;;19.60;99.90;;;;;;5062221;28;20390;-82
2022/05/07 09:31:31;;;;;;;42.72;31.60;;;19.40;99.90;;;;;;5058927;28;20044;-82
2022/05/07 09:36:43;;;;;;;45.73;32.50;;;19.20;99.90;;;;;;5061497;28;20119;-83
2022/05/07 09:39:12;;;;;;;43.60;32.85;;;19.20;99.90;;;;;;5058792;28;20044;-83
2022/05/07 09:41:38;;;;;;;46.50;33.55;;;18.90;99.90;;;;;;5075728;28;20046;-83
2022/05/07 09:44:04;;;;;;;43.40;32.60;;;18.80;99.90;;;;;;5041788;28;20039;-83
2022/05/07 09:46:32;;;;;;;43.20;31.63;;;18.70;99.90;;;;;;5057012;28;20090;-83
2022/05/07 09:49:01;;;;;;;39.83;30.58;;;18.50;99.90;;;;;;5058126;28;20481;-82
2022/05/07 09:51:28;;;;;;;35.28;26.15;;;18.70;99.90;;;;;;5053117;28;20040;-82
2022/05/07 09:59:23;;;;;;;35.45;24.63;;;18.70;99.90;;;;;;5051140;28;20041;-82
2022/05/07 10:02:05;;;;;;;31.23;23.83;;;19.00;99.90;;;;;;5043575;28;20041;-82
2022/05/07 10:04:56;;;;;;;32.22;22.98;;;19.20;99.90;;;;;;5044207;28;20032;-82
2022/05/07 10:08:04;;;;;;;33.90;25.30;;;19.40;99.90;;;;;;5055045;28;20074;-82
2022/05/07 10:10:35;;;;;;;36.55;25.00;;;19.20;99.90;;;;;;5043105;28;20044;-83
2022/05/07 10:13:02;;;;;;;41.35;28.60;;;19.20;99.90;;;;;;5072220;28;20078;-82
2022/05/07 10:15:28;;;;;;;47.28;33.72;;;19.40;99.90;;;;;;5046691;28;20040;-82
2022/05/07 10:18:16;;;;;;;50.72;34.80;;;19.40;99.90;;;;;;5074439;28;20071;-82
2022/05/07 10:20:47;;;;;;;48.85;36.17;;;19.30;99.90;;;;;;5074428;28;20052;-82
2022/05/07 10:23:15;;;;;;;52.95;37.83;;;19.10;99.90;;;;;;5058112;28;20044;-83
2022/05/07 10:25:43;;;;;;;57.45;38.40;;;18.90;99.90;;;;;;5057959;28;20123;-82
2022/05/07 10:28:11;;;;;;;56.92;38.88;;;18.70;99.90;;;;;;5074370;28;20036;-82
2022/05/07 10:30:48;;;;;;;59.85;42.00;;;18.60;99.90;;;;;;5057272;28;20070;-82
2022/05/07 10:33:15;;;;;;;57.53;39.70;;;18.50;99.90;;;;;;5057715;28;20044;-82
2022/05/07 10:35:58;;;;;;;60.20;39.70;;;18.60;99.90;;;;;;5043862;28;20037;-82
2022/05/07 10:38:26;;;;;;;57.03;38.28;;;18.60;99.90;;;;;;5074483;28;20037;-85
2022/05/07 10:40:53;;;;;;;55.50;36.63;;;18.70;99.90;;;;;;5057713;28;20050;-85
2022/05/07 10:43:39;;;;;;;51.67;35.03;;;18.70;99.90;;;;;;5074011;28;20055;-85
2022/05/07 10:46:15;;;;;;;47.70;33.83;;;18.80;99.90;;;;;;5062177;28;20495;-86
2022/05/07 10:48:43;;;;;;;43.25;31.38;;;18.80;99.90;;;;;;5074289;28;20043;-85
2022/05/07 10:51:31;;;;;;;40.45;29.30;;;18.90;99.90;;;;;;5057583;28;20398;-85
2022/05/07 10:54:03;;;;;;;35.53;25.80;;;18.90;99.90;;;;;;5074119;28;20509;-86
2022/05/07 10:56:35;;;;;;;36.88;25.38;;;18.90;99.90;;;;;;5058274;28;20525;-82
2022/05/07 10:59:01;;;;;;;34.75;24.80;;;18.90;99.90;;;;;;5057428;28;20486;-82
2022/05/07 11:01:29;;;;;;;35.15;25.38;;;18.90;99.90;;;;;;5057279;28;20064;-82
2022/05/07 11:04:06;;;;;;;33.25;22.27;;;18.80;99.90;;;;;;5073965;28;20048;-82
2022/05/07 11:06:44;;;;;;;30.52;21.02;;;18.90;99.90;;;;;;5057246;28;20029;-82
2022/05/07 11:09:26;;;;;;;26.30;17.90;;;19.00;99.90;;;;;;5073577;28;20043;-82
2022/05/07 11:11:54;;;;;;;24.73;17.83;;;19.10;99.90;;;;;;5073789;28;20044;-82
2022/05/07 11:14:25;;;;;;;23.92;17.42;;;19.10;99.90;;;;;;5056854;28;20048;-82
2022/05/07 11:16:56;;;;;;;25.13;16.33;;;19.10;99.90;;;;;;5074070;28;20044;-82
2022/05/07 11:19:35;;;;;;;23.67;17.00;;;19.30;99.90;;;;;;5073334;28;20475;-82
2022/05/07 11:22:04;;;;;;;24.40;16.48;;;19.40;99.90;;;;;;5073460;28;20044;-82
2022/05/07 11:24:31;;;;;;;20.58;15.27;;;19.40;99.90;;;;;;5057050;28;20536;-82
2022/05/07 11:27:02;;;;;;;18.00;13.30;;;19.40;99.90;;;;;;5073434;28;20075;-82
2022/05/07 11:29:29;;;;;;;23.23;14.70;;;19.50;99.90;;;;;;5056763;28;20066;-86
2022/05/07 11:31:57;;;;;;;16.75;12.80;;;19.60;99.90;;;;;;5070359;28;20513;-86
2022/05/07 11:34:42;;;;;;;17.30;12.20;;;19.60;99.90;;;;;;5062611;28;20102;-86
2022/05/07 11:37:13;;;;;;;19.20;12.05;;;20.00;99.90;;;;;;5073064;28;20033;-86
2022/05/07 11:40:06;;;;;;;16.02;11.82;;;20.80;99.90;;;;;;5047204;28;20047;-86
2022/05/07 11:42:43;;;;;;;15.20;10.63;;;21.40;99.90;;;;;;5034965;28;20091;-86
2022/05/07 11:45:27;;;;;;;14.13;10.70;;;21.90;99.90;;;;;;5051250;28;20056;-87
2022/05/07 11:48:09;;;;;;;17.88;10.45;;;22.60;99.90;;;;;;5045020;28;20449;-87
2022/05/07 11:50:43;;;;;;;13.27;9.85;;;23.70;99.90;;;;;;5070061;28;20488;-87
2022/05/07 11:53:16;;;;;;;13.63;8.98;;;25.10;98.70;;;;;;5072913;28;20082;-87
2022/05/07 11:55:43;;;;;;;12.70;9.55;;;25.70;96.70;;;;;;5072930;28;20056;-87
2022/05/07 11:58:24;;;;;;;12.98;9.65;;;25.50;96.00;;;;;;5039695;28;20085;-87
2022/05/07 12:00:55;;;;;;;11.45;9.20;;;25.30;95.20;;;;;;5072995;28;20044;-87
2022/05/07 12:03:27;;;;;;;12.75;9.55;;;25.10;94.80;;;;;;5072763;28;20068;-83
2022/05/07 12:05:56;;;;;;;12.55;10.35;;;25.00;94.40;;;;;;5072754;28;20098;-83
2022/05/07 12:08:24;;;;;;;15.90;12.27;;;24.60;95.70;;;;;;5055967;28;20502;-83
2022/05/07 12:10:53;;;;;;;17.33;12.68;;;24.10;95.50;;;;;;5039309;28;20032;-82
2022/05/07 12:13:21;;;;;;;17.55;13.85;;;23.60;96.20;;;;;;5072470;28;20052;-82
2022/05/07 12:18:32;;;;;;;16.30;12.45;;;22.80;97.10;;;;;;5072526;28;20545;-87
2022/05/07 12:20:58;;;;;;;16.23;11.73;;;22.60;97.50;;;;;;5055725;28;20550;-87
2022/05/07 12:31:38;;;;;;;12.15;8.40;;;23.00;97.50;;;;;;5072347;28;20049;-87
2022/05/07 12:34:04;;;;;;;11.00;8.18;;;22.80;97.80;;;;;;5072478;28;20040;-87
2022/05/07 12:36:31;;;;;;;11.63;7.65;;;22.70;98.10;;;;;;5055695;28;20505;-87
2022/05/07 12:38:59;;;;;;;13.32;8.77;;;22.90;98.80;;;;;;5070500;28;20486;-88
2022/05/07 12:41:31;;;;;;;11.63;9.25;;;23.30;98.60;;;;;;5055796;28;20048;-87
2022/05/07 12:43:59;;;;;;;11.68;8.98;;;23.70;97.80;;;;;;5070069;28;20050;-87
2022/05/07 12:46:25;;;;;;;11.80;9.68;;;23.60;97.40;;;;;;5056089;28;20152;-87
2022/05/07 12:48:52;;;;;;;12.20;9.50;;;23.60;96.90;;;;;;5039173;28;20548;-87
2022/05/07 12:51:18;;;;;;;11.63;9.57;;;23.70;97.10;;;;;;5072512;28;20056;-87
2022/05/07 12:53:43;;;;;;;12.20;8.80;;;23.80;97.00;;;;;;5055060;28;20422;-87
2022/05/07 12:56:09;;;;;;;11.65;9.05;;;23.80;96.70;;;;;;5055515;28;20032;-87
2022/05/07 12:58:35;;;;;;;11.60;8.57;;;23.60;96.30;;;;;;5055601;28;20051;-87
2022/05/07 13:01:01;;;;;;;9.38;7.45;;;23.10;95.90;;;;;;5055060;28;20515;-87
2022/05/07 13:03:28;;;;;;;9.50;6.65;;;22.90;96.30;;;;;;5072226;28;20129;-87
2022/05/07 13:05:54;;;;;;;12.48;7.68;;;22.60;96.40;;;;;;5038653;28;20426;-87
2022/05/07 13:08:20;;;;;;;12.68;9.15;;;22.30;96.80;;;;;;5055489;28;20044;-86
2022/05/07 13:10:46;;;;;;;12.63;8.90;;;21.90;97.60;;;;;;5038621;28;20044;-82